Khargon Govt. Airstrip

IN-0060 · Madhya Pradesh, India

Storia di METAR IN-0060 · Khargon Govt. Airstrip

Di seguito sono riportati i METAR degli ultimi giorni. Seleziona un anno per sfogliare i METAR più vecchi, dall'anno 2007 in poi.

14 luglio 2024

Tempo Codice Tempo meteorologico Temp. Vista Base nuvolosa Vento METAR/SPECI
12:00
M
29 °C 5 km 10.000 ft 300° 300° 9 kt METAR VAID 140630Z 30009KT 5000 HZ SCT020 BKN100 29/25 Q1003 NOSIG
11:30
M
28 °C 5 km - 300° 300° 10 kt METAR VAID 140600Z 30010KT 5000 HZ FEW020 SCT100 28/25 Q1003 NOSIG
11:00
M
28 °C 5 km 10.000 ft 310° 310° 9 kt METAR VAID 140530Z 31009KT 5000 HZ FEW010 SCT025 BKN100 28/25 Q1003 NOSIG
10:30
M
27 °C 5 km 10.000 ft 300° 300° 9 kt METAR VAID 140500Z 30009KT 5000 HZ FEW010 SCT020 BKN100 27/24 Q1004 NOSIG
10:00
M
27 °C 5 km 10.000 ft 300° 300° 10 kt METAR VAID 140430Z 30010KT 5000 HZ FEW010 SCT020 BKN100 27/24 Q1004 NOSIG
09:30
I
26 °C 4 km 10.000 ft 290° 290° 10 kt METAR VAID 140400Z 29010KT 4000 HZ FEW010 SCT020 BKN100 26/24 Q1004 NOSIG
09:00
I
26 °C 4 km 10.000 ft 290° 290° 11 kt METAR VAID 140330Z 29011KT 4000 HZ FEW010 SCT020 BKN100 26/24 Q1004 NOSIG
08:30
I
25 °C 4 km 10.000 ft 290° 290° 10 kt METAR VAID 140300Z 29010KT 4000 HZ FEW010 SCT020 BKN100 25/24 Q1004 NOSIG
08:00
I
25 °C 3 km 8.000 ft 290° 290° 10 kt METAR VAID 140230Z 29010KT 3000 HZ FEW010 SCT018 OVC080 25/23 Q1004 NOSIG
07:30
I
25 °C 3 km 8.000 ft 290° 290° 5 kt METAR VAID 140200Z 29005KT 3000 HZ FEW010 SCT018 OVC080 25/23 Q1003 NOSIG
07:00
I
25 °C 3 km 8.000 ft 290° 290° 6 kt METAR VAID 140130Z 29006KT 3000 HZ FEW010 SCT018 OVC080 25/23 Q1004 NOSIG
06:30
I
24 °C 3 km 8.000 ft 290° 290° 5 kt METAR VAID 140100Z 29005KT 3000 HZ FEW010 SCT018 OVC080 24/23 Q1003 NOSIG
06:00
I
24 °C 4 km 8.000 ft 290° 290° 7 kt METAR VAID 140030Z 29007KT 4000 HZ FEW010 SCT018 OVC080 24/23 Q1003 NOSIG
05:30
I
24 °C 4 km 8.000 ft 290° 290° 6 kt METAR VAID 140000Z 29006KT 4000 HZ FEW010 SCT018 OVC080 24/23 Q1002 NOSIG
05:00
I
24 °C 4 km 8.000 ft 280° 280° 6 kt METAR VAID 132330Z 28006KT 4000 HZ FEW010 SCT018 BKN080 24/22 Q1002 NOSIG
04:30
I
23 °C 4 km 8.000 ft 280° 280° 4 kt METAR VAID 132300Z 28004KT 4000 HZ FEW010 SCT018 BKN080 23/22 Q1002 NOSIG
04:00
I
23 °C 4 km 8.000 ft 270° 270° 4 kt METAR VAID 132230Z 27004KT 4000 HZ FEW010 SCT018 BKN080 23/21 Q1002 NOSIG
03:30
I
23 °C 4 km 8.000 ft 290° 290° 3 kt METAR VAID 132200Z 29003KT 4000 HZ FEW010 SCT018 BKN080 23/21 Q1002 NOSIG
03:00
I
23 °C 4 km 8.000 ft 280° 280° 3 kt METAR VAID 132130Z 28003KT 4000 -RA HZ FEW010 SCT018 BKN080 23/21 Q1002 TEMPO 2000 RA
02:30
I
23 °C 4 km 8.000 ft 250° 250° 4 kt METAR VAID 132100Z 25004KT 4000 -RA HZ FEW010 SCT018 BKN080 23/21 Q1002 TEMPO 2000 RA
02:00
I
23 °C 4 km 8.000 ft 280° 280° 4 kt METAR VAID 132030Z 28004KT 4000 HZ FEW010 SCT018 BKN080 23/21 Q1003 NOSIG
01:30
I
23 °C 4 km 8.000 ft 240° 240° 4 kt METAR VAID 132000Z 24004KT 4000 HZ FEW010 SCT018 BKN080 23/21 Q1003 TEMPO 2000 TSRA
01:00
I
22 °C 3 km 8.000 ft 250° 250° 3 kt METAR VAID 131930Z 25003KT 3000 -TSRA FEW010 SCT018 FEW030CB OVC080 22/20 Q1004 TEMPO 1500 TSRA
00:30
I
22 °C 4 km 8.000 ft 360° 360° 3 kt METAR VAID 131900Z 36003KT 4000 -TSRA FEW010 SCT018 FEW030CB OVC080 22/21 Q1004 TEMPO 1500 TSRA
00:00
I
22 °C 4 km 8.000 ft 360° 360° 0 kt METAR VAID 131830Z 00000KT 4000 TS HZ FEW010 SCT018 FEW030CB OVC080 22/20 Q1004 TEMPO 2000 -TSRA

13 luglio 2024

Tempo Codice Tempo meteorologico Temp. Vista Base nuvolosa Vento METAR/SPECI
23:30
I
22 °C 1,5 km 8.000 ft 180° 180° 4 kt METAR VAID 131800Z 18004KT 1500 +TSRA FEW010 SCT018 FEW030CB OVC080 22/21 Q1004 TEMPO 0400 +TSRA
23:00
L
21 °C 800 m 8.000 ft 270° 270° 7 kt METAR VAID 131730Z 27007KT 0800 +TSRA FEW010 SCT018 FEW030CB OVC080 21/20 Q1004 TEMPO 0400 +TSRA
22:30
L
23 °C 600 m 8.000 ft 180° 180° 9 kt METAR VAID 131700Z 18009KT 0600 +TSRA FEW010 SCT018 FEW030CB OVC080 23/21 Q1004 TEMPO 0400 +TSRA
22:00
I
25 °C 2 km 8.000 ft 080° 080° 10 kt METAR VAID 131630Z 08010KT 2000 TSRA FEW010 SCT018 FEW030CB OVC080 25/22 Q1004 TEMPO 1000 -TSRA
21:30
I
26 °C 3 km 10.000 ft 080° 080° 10 kt METAR VAID 131600Z 08010KT 3000 TSHZ FEW010 SCT018 FEW030CB BKN100 26/23 Q1004 TEMPO 2000 -TSRA
21:00
I
26 °C 3 km 10.000 ft 240° 240° 4 kt METAR VAID 131530Z 24004KT 3000 TSHZ SCT018 FEW030CB BKN100 26/24 Q1003 TEMPO 2000-TSRA
20:30
I
26 °C 4 km 10.000 ft 230° 230° 4 kt METAR VAID 131500Z 23004KT 4000 TSHZ SCT018 FEW030CB BKN100 26/24 Q1003 TEMPO 3000-TSRA
20:00
M
26 °C 5 km - 230° 230° 8 kt METAR VAID 131430Z 23008KT 5000 TSHZ SCT020 FEW030CB SCT100 26/23 Q1003 TEMPO 5000-TSRA
19:30
M
26 °C 6 km - 230° 230° 8 kt METAR VAID 131400Z 23008KT 6000 VCTS SCT018 SCT100 26/24 Q1003 TEMPO 5000-TSRA
19:00
M
26 °C 6 km - 210° 210° 8 kt METAR VAID 131330Z 21008KT 6000 SCT018 SCT100 26/23 Q1002 NOSIG
18:30
M
27 °C 6 km - 210° 210° 11 kt METAR VAID 131300Z 21011KT 6000 SCT018 SCT025 27/23 Q1001 NOSIG
18:00
M
28 °C 6 km - 210° 210° 6 kt METAR VAID 131230Z 21006KT 6000 SCT020 SCT030 28/24 Q1001 NOSIG
17:30
M
28 °C 6 km - 210° 210° 7 kt METAR VAID 131200Z 21007KT 6000 SCT025 SCT030 28/24 Q1001 NOSIG
17:00
M
29 °C 6 km - 220° 220° 5 kt METAR VAID 131130Z 22005KT 6000 SCT025 SCT100 29/24 Q1001 NOSIG
16:30
M
29 °C 6 km - 260° 260° 8 kt METAR VAID 131100Z 26008KT 6000 SCT020 SCT030 29/24 Q1001 NOSIG
16:00
M
29 °C 6 km - 290° 290° 6 kt METAR VAID 131030Z 29006KT 6000 SCT025 SCT030 29/24 Q1001 NOSIG
15:30
M
28 °C 6 km - 310° 310° 10 kt METAR VAID 131000Z 31010KT 6000 SCT025 SCT030 28/24 Q1001 NOSIG
15:00
M
27 °C 6 km - 310° 310° 4 kt METAR VAID 130930Z 31004KT 6000 FEW025 SCT030 27/23 Q1002 NOSIG
14:30
M
29 °C 6 km - 300° 300° 11 kt METAR VAID 130900Z 30011KT 6000 SCT025 SCT030 29/23 Q1002 NOSIG
14:00
M
30 °C 6 km - 280° 280° 9 kt METAR VAID 130830Z 28009KT 6000 FEW020 SCT025 30/25 Q1003 NOSIG
13:30
M
29 °C 6 km - 300° 300° 8 kt METAR VAID 130800Z 30008KT 6000 FEW020 SCT025 29/24 Q1003 NOSIG
13:00
M
30 °C 6 km - 300° 300° 9 kt METAR VAID 130730Z 30009KT 6000 FEW020 SCT025 30/24 Q1003 NOSIG
12:30
M
29 °C 6 km - 290° 290° 8 kt METAR VAID 130700Z 29008KT 6000 FEW020 SCT025 29/24 Q1004 NOSIG
12:00
M
29 °C 5 km - 280° 280° 7 kt METAR VAID 130630Z 28007KT 5000 HZ FEW012 SCT020 29/24 Q1004 NOSIG
11:30
M
28 °C 5 km - 270° 270° 8 kt METAR VAID 130600Z 27008KT 5000 HZ FEW020 SCT100 28/24 Q1004 NOSIG
11:00
M
27 °C 5 km 10.000 ft 290° 290° 10 kt METAR VAID 130530Z 29010KT 5000 HZ FEW012 SCT020 BKN100 27/24 Q1005 NOSIG
10:30
M
26 °C 5 km 10.000 ft 280° 280° 10 kt METAR VAID 130500Z 28010KT 5000 HZ FEW012 SCT020 BKN100 26/23 Q1005 NOSIG
10:00
M
26 °C 5 km 10.000 ft 290° 290° 9 kt METAR VAID 130430Z 29009KT 5000 HZ FEW012 SCT020 BKN100 26/24 Q1005 NOSIG
09:30
M
25 °C 5 km 10.000 ft 270° 270° 7 kt METAR VAID 130400Z 27007KT 5000 HZ FEW012 SCT020 BKN100 25/23 Q1005 NOSIG
09:00
M
25 °C 5 km 10.000 ft 270° 270° 10 kt METAR VAID 130330Z 27010KT 5000 HZ FEW012 SCT020 BKN100 25/23 Q1005 NOSIG
08:30
M
25 °C 5 km 10.000 ft 270° 270° 10 kt METAR VAID 130300Z 27010KT 5000 HZ FEW012 SCT020 BKN100 25/23 Q1005 NOSIG
08:00
M
24 °C 5 km 10.000 ft 270° 270° 7 kt METAR VAID 130230Z 27007KT 5000 HZ FEW012 SCT020 BKN100 24/22 Q1005 NOSIG
07:30
M
24 °C 6 km 10.000 ft 280° 280° 8 kt METAR VAID 130200Z 28008KT 6000 SCT020 BKN100 24/22 Q1004 NOSIG
07:00
M
24 °C 6 km 10.000 ft 280° 280° 9 kt METAR VAID 130130Z 28009KT 6000 SCT020 BKN100 24/22 Q1004 NOSIG
06:30
M
24 °C 6 km 10.000 ft 270° 270° 8 kt METAR VAID 130100Z 27008KT 6000 SCT020 BKN100 24/22 Q1004 NOSIG
06:00
M
24 °C 6 km 10.000 ft 260° 260° 8 kt METAR VAID 130030Z 26008KT 6000 SCT020 BKN100 24/22 Q1003 NOSIG
05:30
M
24 °C 5 km 10.000 ft 270° 270° 9 kt METAR VAID 130000Z 27009KT 5000 HZ FEW010 SCT020 BKN100 24/22 Q1003 NOSIG
05:00
I
24 °C 4 km 10.000 ft 260° 260° 12 kt METAR VAID 122330Z 26012KT 4000 HZ FEW010 SCT020 BKN100 24/22 Q1003 NOSIG
04:30
I
25 °C 4 km 10.000 ft 260° 260° 11 kt METAR VAID 122300Z 26011KT 4000 HZ FEW010 SCT020 BKN100 25/22 Q1003 NOSIG
04:00
I
24 °C 4 km 10.000 ft 260° 260° 8 kt METAR VAID 122230Z 26008KT 4000 HZ FEW010 SCT020 BKN100 24/22 Q1003 NOSIG
02:30
M
24 °C 5 km 10.000 ft 250° 250° 8 kt METAR VAID 122100Z 25008KT 5000 HZ FEW010 SCT020 BKN100 24/22 Q1003 NOSIG
01:30
M
24 °C 5 km 10.000 ft 260° 260° 8 kt METAR VAID 122000Z 26008KT 5000 HZ FEW010 SCT020 BKN100 24/22 Q1004 NOSIG
00:30
M
25 °C 5 km 10.000 ft 250° 250° 6 kt METAR VAID 121900Z 25006KT 5000 HZ FEW010 SCT020 BKN100 25/22 Q1004 NOSIG
00:00
M
25 °C 5 km 10.000 ft 270° 270° 6 kt METAR VAID 121830Z 27006KT 5000 HZ FEW008 SCT018 BKN100 25/23 Q1004 NOSIG

12 luglio 2024

Tempo Codice Tempo meteorologico Temp. Vista Base nuvolosa Vento METAR/SPECI
23:30
M
26 °C 6 km 10.000 ft 250° 250° 8 kt METAR VAID 111800Z 25008KT 6000 SCT020 BKN100 26/23 Q1005 NOSIG
22:05
M
25 °C 6 km 10.000 ft 230° 230° 8 kt METAR VAID 121635Z 23008KT 6000 FEW010 SCT020 BKN100 25/23 Q1005 NOSIG
22:00
M
26 °C 6 km - 230° 230° 5 kt METAR VAID 111630Z 23005KT 6000 FEW020 SCT100 26/23 Q1005 NOSIG
21:00
M
27 °C 6 km - 240° 240° 8 kt METAR VAID 111530Z 24008KT 6000 FEW020 SCT100 27/24 Q1005 NOSIG
Segnala modifiche